Time;durP1;ratioP1;P1;durP2;ratioP2;P2;SDS_P1;SDS_P2;PMS_P1;PMS_P2;Temp;Humidity;BMP_temperature;BMP_pressure;BME280_temperature;BME280_humidity;BME280_pressure;Samples;Min_cycle;Max_cycle;Signal;HPM_P1;HPM_P2
2021/09/18 00:01:38;;;;;;;6.70;4.65;;;14.80;72.30;;;;;;5015405;28;20050;-81
2021/09/18 00:04:05;;;;;;;8.15;4.40;;;14.80;72.30;;;;;;5018275;28;20054;-81
2021/09/18 00:06:33;;;;;;;15.27;4.45;;;14.70;72.20;;;;;;5019354;28;20088;-81
2021/09/18 00:09:00;;;;;;;10.55;4.55;;;14.70;72.30;;;;;;5018936;28;20458;-81
2021/09/18 00:11:27;;;;;;;6.57;4.65;;;14.70;72.60;;;;;;5018722;28;20045;-81
2021/09/18 00:13:54;;;;;;;6.47;4.45;;;14.60;72.90;;;;;;5016052;28;20404;-81
2021/09/18 00:16:21;;;;;;;7.82;4.53;;;14.60;72.80;;;;;;5016657;28;20050;-81
2021/09/18 00:18:48;;;;;;;8.80;4.53;;;14.60;72.90;;;;;;5018349;28;20045;-81
2021/09/18 00:21:15;;;;;;;5.70;4.15;;;14.60;72.80;;;;;;5018808;28;20070;-81
2021/09/18 00:23:42;;;;;;;6.93;4.03;;;14.60;72.70;;;;;;5018828;28;20064;-81
2021/09/18 00:26:09;;;;;;;5.85;4.22;;;14.50;72.60;;;;;;5017465;28;20104;-81
2021/09/18 00:28:37;;;;;;;8.00;4.85;;;14.50;72.60;;;;;;5015223;28;20068;-81
2021/09/18 00:31:04;;;;;;;7.55;6.40;;;14.40;72.60;;;;;;5017722;28;20049;-81
2021/09/18 00:33:31;;;;;;;5.90;4.13;;;14.40;72.60;;;;;;5018517;28;20045;-81
2021/09/18 00:35:58;;;;;;;11.73;4.82;;;14.40;72.60;;;;;;5018766;28;20057;-81
2021/09/18 00:38:25;;;;;;;9.80;4.10;;;14.40;72.70;;;;;;5018403;28;20395;-81
2021/09/18 00:40:52;;;;;;;10.05;4.30;;;14.40;72.90;;;;;;5014866;28;20041;-81
2021/09/18 00:43:19;;;;;;;8.45;4.88;;;14.40;72.90;;;;;;5016382;28;20104;-81
2021/09/18 00:45:45;;;;;;;9.73;4.00;;;14.40;72.80;;;;;;5015275;28;20112;-81
2021/09/18 00:48:13;;;;;;;6.15;3.90;;;14.40;72.90;;;;;;4998216;28;20054;-81
2021/09/18 00:50:42;;;;;;;7.25;4.10;;;14.40;73.00;;;;;;5015321;28;20049;-81
2021/09/18 00:53:09;;;;;;;10.32;5.13;;;14.30;73.00;;;;;;5015395;28;20054;-81
2021/09/18 00:55:36;;;;;;;13.88;4.25;;;14.30;72.90;;;;;;5012967;28;20049;-81
2021/09/18 00:58:03;;;;;;;6.18;3.97;;;14.30;72.90;;;;;;5013752;28;20049;-81
2021/09/18 01:00:32;;;;;;;8.15;4.63;;;14.30;72.80;;;;;;5015251;28;20134;-81
2021/09/18 01:03:00;;;;;;;8.77;4.00;;;14.20;72.70;;;;;;5015043;28;20570;-81
2021/09/18 01:05:30;;;;;;;6.88;4.40;;;14.10;72.60;;;;;;5014994;28;20057;-81
2021/09/18 01:07:59;;;;;;;5.05;4.05;;;14.10;72.50;;;;;;5014997;28;20052;-81
2021/09/18 01:10:26;;;;;;;7.93;4.63;;;14.10;72.50;;;;;;5012567;28;20057;-81
2021/09/18 01:13:03;;;;;;;7.53;4.65;;;14.10;72.60;;;;;;5014775;28;20054;-81
2021/09/18 01:15:33;;;;;;;7.57;4.35;;;14.00;72.80;;;;;;5014760;28;20100;-81
2021/09/18 01:18:00;;;;;;;11.50;4.65;;;14.00;72.90;;;;;;5017811;28;20053;-81
2021/09/18 01:20:28;;;;;;;5.80;4.15;;;14.00;72.90;;;;;;5017605;28;20049;-81
2021/09/18 01:22:58;;;;;;;8.23;4.95;;;14.00;72.90;;;;;;5014791;28;20042;-81
2021/09/18 01:25:26;;;;;;;8.65;5.22;;;13.90;72.90;;;;;;5014904;28;20510;-81
2021/09/18 01:27:53;;;;;;;6.10;4.10;;;13.90;72.90;;;;;;5016606;28;20521;-81
2021/09/18 01:30:24;;;;;;;12.10;5.35;;;13.90;73.00;;;;;;5017449;28;20045;-81
2021/09/18 01:32:52;;;;;;;7.50;4.80;;;13.90;73.00;;;;;;5017566;28;20046;-81
2021/09/18 01:35:19;;;;;;;5.97;4.60;;;13.90;73.10;;;;;;5017338;28;20424;-81
2021/09/18 01:37:49;;;;;;;8.73;5.60;;;13.90;73.00;;;;;;5013338;28;20506;-81
2021/09/18 01:40:19;;;;;;;7.20;5.97;;;13.80;73.10;;;;;;5015459;28;20065;-81
2021/09/18 01:42:47;;;;;;;7.35;5.00;;;13.80;73.20;;;;;;5014199;28;20042;-81
2021/09/18 01:45:15;;;;;;;7.70;5.30;;;13.80;73.40;;;;;;5014292;28;20506;-81
2021/09/18 01:47:47;;;;;;;7.65;5.50;;;13.80;73.40;;;;;;5014276;28;20124;-81
2021/09/18 01:50:33;;;;;;;13.18;5.53;;;13.70;73.40;;;;;;5014377;28;20046;-81
2021/09/18 01:53:03;;;;;;;6.60;5.03;;;13.70;73.30;;;;;;5014032;28;20115;-81
2021/09/18 01:55:31;;;;;;;7.45;4.90;;;13.60;73.30;;;;;;5012811;28;20053;-81
2021/09/18 01:57:59;;;;;;;6.22;4.60;;;13.70;73.30;;;;;;5016096;28;20050;-81
2021/09/18 02:00:26;;;;;;;6.60;5.38;;;13.60;73.30;;;;;;5016986;28;20081;-81
2021/09/18 02:02:53;;;;;;;6.82;4.78;;;13.60;73.50;;;;;;5016996;28;20561;-81
2021/09/18 02:05:25;;;;;;;7.15;4.68;;;13.60;73.60;;;;;;5016912;28;20545;-81
2021/09/18 02:07:53;;;;;;;9.82;5.30;;;13.60;73.60;;;;;;5013260;28;20050;-81
2021/09/18 02:10:22;;;;;;;9.73;5.53;;;13.60;73.80;;;;;;5014768;28;20053;-81
2021/09/18 02:12:49;;;;;;;7.80;5.80;;;13.60;73.90;;;;;;5013583;28;20050;-81
2021/09/18 02:15:19;;;;;;;6.57;4.85;;;13.60;73.80;;;;;;5013745;28;20049;-81
2021/09/18 02:17:46;;;;;;;8.25;5.78;;;13.50;73.70;;;;;;5013701;28;20592;-81
2021/09/18 02:20:16;;;;;;;7.82;5.45;;;13.50;73.60;;;;;;5013639;28;20049;-81
2021/09/18 02:22:43;;;;;;;11.90;5.65;;;13.50;73.60;;;;;;5013431;28;20046;-81
2021/09/18 02:25:11;;;;;;;9.63;5.97;;;13.50;73.60;;;;;;5015841;28;20057;-81
2021/09/18 02:27:39;;;;;;;9.93;7.03;;;13.40;73.70;;;;;;5016570;28;20046;-81
2021/09/18 02:30:10;;;;;;;6.75;5.18;;;13.40;73.80;;;;;;5016500;28;20445;-81
2021/09/18 02:32:37;;;;;;;10.07;6.53;;;13.40;73.80;;;;;;5016675;28;20057;-81
2021/09/18 02:35:07;;;;;;;8.18;5.97;;;13.40;73.90;;;;;;5014689;28;20065;-81
2021/09/18 02:37:34;;;;;;;8.65;6.05;;;13.40;73.80;;;;;;5012971;28;20057;-81
2021/09/18 02:40:03;;;;;;;11.43;5.93;;;13.40;73.90;;;;;;5015601;28;20053;-81
2021/09/18 02:42:30;;;;;;;7.43;5.65;;;13.40;73.90;;;;;;5016453;28;20058;-81
2021/09/18 02:44:58;;;;;;;6.68;5.18;;;13.40;73.80;;;;;;5016375;28;20046;-81
2021/09/18 02:47:25;;;;;;;6.10;4.85;;;13.30;73.80;;;;;;5016400;28;20115;-81
2021/09/18 02:49:52;;;;;;;9.05;5.60;;;13.30;73.70;;;;;;5013185;28;20049;-81
2021/09/18 02:52:19;;;;;;;7.72;5.88;;;13.30;73.70;;;;;;5014009;28;20054;-81
2021/09/18 02:54:45;;;;;;;9.75;4.75;;;13.30;73.70;;;;;;5016290;28;20061;-81
2021/09/18 02:57:12;;;;;;;9.52;6.70;;;13.30;73.60;;;;;;5016168;28;20041;-81
2021/09/18 02:59:39;;;;;;;10.85;6.10;;;13.20;73.70;;;;;;5016228;28;20058;-81
2021/09/18 03:02:06;;;;;;;8.23;6.10;;;13.20;73.70;;;;;;5014900;28;20050;-81
2021/09/18 03:04:33;;;;;;;6.25;5.35;;;13.20;73.60;;;;;;5013113;28;20133;-81
2021/09/18 03:07:00;;;;;;;7.43;5.80;;;13.20;73.70;;;;;;5014946;28;20057;-81
2021/09/18 03:09:27;;;;;;;8.40;6.90;;;13.10;73.80;;;;;;5016071;28;20111;-81
2021/09/18 03:11:54;;;;;;;8.82;6.20;;;13.10;73.80;;;;;;5016253;28;20061;-81
2021/09/18 03:14:21;;;;;;;8.50;5.35;;;13.10;73.90;;;;;;5015943;28;20045;-81
2021/09/18 03:16:48;;;;;;;13.73;6.30;;;13.10;73.90;;;;;;5012260;28;20046;-81
2021/09/18 03:19:15;;;;;;;7.20;6.20;;;13.10;73.90;;;;;;5017332;28;20065;-81
2021/09/18 03:21:42;;;;;;;7.80;5.65;;;13.00;73.90;;;;;;5019543;28;20058;-81
2021/09/18 03:24:08;;;;;;;10.57;5.18;;;13.00;73.90;;;;;;5019952;28;20045;-81
2021/09/18 03:26:36;;;;;;;6.60;5.57;;;13.00;74.00;;;;;;5020018;28;20064;-81
2021/09/18 03:29:03;;;;;;;10.10;6.03;;;12.90;74.00;;;;;;5018095;28;20046;-81
2021/09/18 03:31:30;;;;;;;8.45;5.68;;;13.00;74.10;;;;;;5017135;28;20529;-82
2021/09/18 03:33:57;;;;;;;7.07;5.15;;;12.90;74.00;;;;;;5018914;28;20073;-81
2021/09/18 03:36:24;;;;;;;10.07;5.43;;;12.90;73.90;;;;;;5019304;28;20049;-82
2021/09/18 03:38:51;;;;;;;5.75;4.75;;;12.90;73.90;;;;;;5019601;28;20538;-81
2021/09/18 03:41:18;;;;;;;5.80;4.72;;;12.90;73.90;;;;;;5019725;28;20045;-81
2021/09/18 03:43:45;;;;;;;8.32;5.68;;;12.90;73.90;;;;;;5015331;28;20552;-81
2021/09/18 03:46:11;;;;;;;7.45;5.50;;;12.90;74.00;;;;;;5018351;28;20053;-81
2021/09/18 03:48:38;;;;;;;9.60;5.85;;;12.90;74.00;;;;;;5019264;28;20050;-81
2021/09/18 03:51:05;;;;;;;9.80;6.05;;;12.90;74.10;;;;;;5019505;28;20045;-81
2021/09/18 03:53:33;;;;;;;12.02;5.78;;;12.80;74.00;;;;;;5019267;28;20644;-81
2021/09/18 03:56:00;;;;;;;8.57;6.10;;;12.80;74.00;;;;;;5017240;28;20542;-81
2021/09/18 03:58:27;;;;;;;6.65;5.03;;;12.70;74.00;;;;;;5016717;28;20046;-81
2021/09/18 04:00:54;;;;;;;9.18;6.57;;;12.80;74.00;;;;;;5018366;28;20053;-81
2021/09/18 04:03:21;;;;;;;8.90;6.28;;;12.80;74.10;;;;;;5018854;28;20049;-81
2021/09/18 04:05:52;;;;;;;9.07;5.53;;;12.70;74.10;;;;;;5019179;28;20085;-82
2021/09/18 04:08:19;;;;;;;12.32;5.53;;;12.70;74.10;;;;;;5019158;28;20042;-82
2021/09/18 04:10:46;;;;;;;9.27;6.03;;;12.70;74.20;;;;;;5015203;28;20052;-81
2021/09/18 04:13:13;;;;;;;8.80;6.57;;;12.60;74.20;;;;;;5017586;28;20054;-81
2021/09/18 04:15:40;;;;;;;10.23;5.00;;;12.60;74.20;;;;;;5015949;28;20056;-81
2021/09/18 04:18:07;;;;;;;8.73;6.57;;;12.60;74.20;;;;;;5015679;28;20045;-82
2021/09/18 04:20:34;;;;;;;7.28;5.05;;;12.60;74.40;;;;;;5015800;28;20049;-82
2021/09/18 04:23:01;;;;;;;8.43;5.50;;;12.60;74.40;;;;;;5015938;28;20045;-82
2021/09/18 04:25:28;;;;;;;7.88;5.68;;;12.50;74.40;;;;;;5013835;28;20060;-82
2021/09/18 04:27:55;;;;;;;8.43;6.25;;;12.50;74.40;;;;;;5015351;28;20116;-82
2021/09/18 04:30:22;;;;;;;6.95;5.45;;;12.50;74.40;;;;;;5014556;28;20138;-81
2021/09/18 04:32:49;;;;;;;7.10;5.75;;;12.50;74.40;;;;;;5018221;28;20526;-82
2021/09/18 04:35:16;;;;;;;8.27;6.35;;;12.50;74.50;;;;;;5018588;28;20045;-82
2021/09/18 04:37:43;;;;;;;7.75;6.38;;;12.50;74.60;;;;;;5014496;28;20391;-82
2021/09/18 04:40:10;;;;;;;10.40;5.65;;;12.50;74.50;;;;;;5028873;28;20049;-81
2021/09/18 04:42:37;;;;;;;8.57;6.07;;;12.50;74.50;;;;;;5015849;28;20058;-82
2021/09/18 04:45:06;;;;;;;7.53;6.07;;;12.40;74.60;;;;;;5015379;28;20042;-82
2021/09/18 04:47:33;;;;;;;7.47;6.40;;;12.40;74.70;;;;;;5014956;28;20042;-82
2021/09/18 04:49:59;;;;;;;9.75;6.72;;;12.40;74.60;;;;;;5015527;28;20045;-82
2021/09/18 04:52:26;;;;;;;9.00;5.55;;;12.40;74.60;;;;;;5013318;28;20531;-82
2021/09/18 04:54:53;;;;;;;8.48;6.57;;;12.40;74.50;;;;;;5017258;28;20494;-82
2021/09/18 04:57:20;;;;;;;8.30;6.07;;;12.40;74.50;;;;;;5018111;28;20108;-82
2021/09/18 04:59:47;;;;;;;10.73;6.25;;;12.40;74.40;;;;;;5018290;28;20049;-82
2021/09/18 05:02:14;;;;;;;7.50;6.15;;;12.40;74.50;;;;;;5017571;28;20045;-82
2021/09/18 05:04:42;;;;;;;7.72;5.90;;;12.30;74.50;;;;;;5015010;28;20045;-82
2021/09/18 05:07:08;;;;;;;8.50;6.80;;;12.30;74.50;;;;;;4995432;28;20061;-82
2021/09/18 05:09:35;;;;;;;8.40;5.40;;;12.30;74.50;;;;;;5014888;28;20045;-81
2021/09/18 05:12:02;;;;;;;8.05;6.10;;;12.30;74.50;;;;;;5017976;28;20109;-82
2021/09/18 05:14:29;;;;;;;8.65;6.93;;;12.20;74.60;;;;;;5017884;28;20049;-82
2021/09/18 05:16:56;;;;;;;7.95;6.68;;;12.30;74.60;;;;;;5014780;28;20100;-82
2021/09/18 05:19:23;;;;;;;7.82;6.55;;;12.30;74.60;;;;;;5015515;28;20054;-82
2021/09/18 05:21:50;;;;;;;10.38;7.32;;;12.20;74.50;;;;;;5017139;28;20050;-82
2021/09/18 05:24:17;;;;;;;9.35;6.88;;;12.20;74.50;;;;;;5017706;28;20096;-82
2021/09/18 05:26:43;;;;;;;10.55;7.10;;;12.20;74.40;;;;;;5017782;28;20054;-82
2021/09/18 05:29:10;;;;;;;8.93;7.10;;;12.20;74.50;;;;;;5014244;28;20088;-82
2021/09/18 05:31:37;;;;;;;9.77;7.28;;;12.10;74.50;;;;;;5021372;28;20099;-82
2021/09/18 05:34:04;;;;;;;8.85;6.35;;;12.10;74.40;;;;;;5031871;28;20046;-82
2021/09/18 05:36:32;;;;;;;9.95;5.80;;;12.00;74.40;;;;;;5027640;28;20659;-82
2021/09/18 05:38:58;;;;;;;9.20;7.38;;;12.10;74.50;;;;;;5027366;28;20116;-81
2021/09/18 05:41:25;;;;;;;11.68;7.28;;;12.10;74.50;;;;;;5027195;28;20046;-83
2021/09/18 05:43:52;;;;;;;10.13;7.18;;;12.00;74.60;;;;;;5011652;28;20563;-82
2021/09/18 05:46:19;;;;;;;10.40;7.65;;;12.00;74.70;;;;;;5029886;28;20053;-82
2021/09/18 05:48:46;;;;;;;7.88;6.53;;;12.00;74.80;;;;;;5009989;28;20498;-82
2021/09/18 05:51:13;;;;;;;10.35;7.82;;;12.00;74.90;;;;;;5027623;28;20190;-82
2021/09/18 05:53:40;;;;;;;11.00;6.53;;;12.00;75.00;;;;;;5027366;28;20048;-83
2021/09/18 05:56:06;;;;;;;10.18;7.25;;;12.00;75.00;;;;;;5028479;28;20045;-84
2021/09/18 05:58:33;;;;;;;8.55;6.50;;;12.00;75.10;;;;;;5029768;28;20054;-84
2021/09/18 06:01:00;;;;;;;8.30;6.40;;;12.00;75.20;;;;;;5031463;28;20052;-82
2021/09/18 06:03:27;;;;;;;9.27;6.03;;;12.00;75.30;;;;;;5028475;28;20470;-82
2021/09/18 06:05:55;;;;;;;10.70;6.63;;;12.00;75.30;;;;;;5028214;28;20480;-82
2021/09/18 06:08:22;;;;;;;8.18;6.45;;;12.00;75.40;;;;;;5023554;28;20068;-82
2021/09/18 06:10:49;;;;;;;9.73;7.43;;;12.00;75.40;;;;;;5027511;28;20049;-82
2021/09/18 06:13:16;;;;;;;8.52;6.30;;;12.00;75.40;;;;;;5015413;28;20108;-82
2021/09/18 06:15:43;;;;;;;7.25;6.30;;;12.00;75.50;;;;;;5028697;28;20093;-82
2021/09/18 06:18:09;;;;;;;8.82;6.45;;;12.00;75.60;;;;;;5027180;28;20091;-82
2021/09/18 06:20:36;;;;;;;9.13;6.65;;;12.00;75.70;;;;;;5027774;28;20120;-81
2021/09/18 06:23:03;;;;;;;10.68;6.55;;;12.00;75.70;;;;;;5027721;28;20046;-82
2021/09/18 06:25:30;;;;;;;7.13;6.20;;;12.10;75.80;;;;;;5029958;28;20054;-82
2021/09/18 06:27:58;;;;;;;9.98;5.63;;;12.10;75.80;;;;;;5030529;28;20049;-81
2021/09/18 06:30:25;;;;;;;9.18;7.82;;;12.00;75.90;;;;;;5027189;28;20417;-82
2021/09/18 06:32:51;;;;;;;11.32;7.28;;;12.10;75.90;;;;;;5027668;28;20053;-82
2021/09/18 06:35:19;;;;;;;8.43;7.05;;;12.10;76.00;;;;;;5027969;28;20410;-82
2021/09/18 06:37:48;;;;;;;8.60;7.22;;;12.10;76.10;;;;;;5027556;28;20107;-82
2021/09/18 06:40:18;;;;;;;10.52;7.13;;;12.10;76.20;;;;;;5031332;28;20053;-84
2021/09/18 06:42:46;;;;;;;13.57;7.55;;;12.10;76.30;;;;;;5028961;28;20049;-83
2021/09/18 06:45:13;;;;;;;11.25;6.85;;;12.10;76.40;;;;;;5027011;28;20565;-83
2021/09/18 06:47:40;;;;;;;11.82;8.57;;;12.10;76.50;;;;;;5027635;28;20057;-83
2021/09/18 06:50:08;;;;;;;10.52;9.43;;;12.20;76.50;;;;;;5029482;28;20045;-83
2021/09/18 06:52:35;;;;;;;17.88;10.60;;;12.20;76.70;;;;;;5027970;28;20049;-82
2021/09/18 06:55:03;;;;;;;17.08;9.82;;;12.20;76.90;;;;;;5030948;28;20052;-83
2021/09/18 06:57:32;;;;;;;15.43;10.65;;;12.30;77.10;;;;;;5027001;28;20049;-83
2021/09/18 06:59:59;;;;;;;17.48;10.15;;;12.20;77.20;;;;;;5009806;28;20053;-82
2021/09/18 07:02:25;;;;;;;13.80;11.05;;;12.30;77.40;;;;;;5027412;28;20045;-82
2021/09/18 07:04:53;;;;;;;14.23;10.90;;;12.30;77.60;;;;;;5027600;28;20046;-82
2021/09/18 07:07:20;;;;;;;14.68;11.43;;;12.40;77.90;;;;;;5029953;28;20445;-82
2021/09/18 07:09:46;;;;;;;12.52;10.25;;;12.40;78.10;;;;;;5030644;28;20049;-82
2021/09/18 07:12:13;;;;;;;12.93;10.23;;;12.40;78.20;;;;;;5027123;28;20429;-83
2021/09/18 07:14:40;;;;;;;13.32;9.25;;;12.40;78.30;;;;;;5027051;28;20057;-82
2021/09/18 07:17:07;;;;;;;23.08;19.40;;;12.50;78.40;;;;;;5027437;28;20049;-83
2021/09/18 07:19:34;;;;;;;19.55;12.85;;;12.50;78.60;;;;;;5028690;28;20826;-82
2021/09/18 07:22:01;;;;;;;18.38;16.48;;;12.60;79.00;;;;;;5030377;28;20050;-82
2021/09/18 07:24:32;;;;;;;16.98;14.75;;;12.70;79.20;;;;;;5027485;28;20053;-83
2021/09/18 07:26:59;;;;;;;26.10;20.52;;;12.70;79.30;;;;;;5026962;28;20136;-83
2021/09/18 07:29:26;;;;;;;30.08;22.80;;;12.80;79.40;;;;;;5028800;28;20071;-83
2021/09/18 07:31:54;;;;;;;20.20;16.67;;;12.90;79.60;;;;;;5027505;28;20095;-82
2021/09/18 07:34:22;;;;;;;22.63;20.23;;;12.90;79.70;;;;;;5029838;28;20049;-82
2021/09/18 07:36:49;;;;;;;27.17;24.08;;;13.10;79.90;;;;;;5028538;28;20060;-82
2021/09/18 07:39:17;;;;;;;25.77;22.90;;;13.10;80.00;;;;;;5027096;28;20050;-82
2021/09/18 07:41:43;;;;;;;32.65;26.98;;;13.20;80.20;;;;;;5026797;28;20104;-82
2021/09/18 07:44:11;;;;;;;29.42;24.58;;;13.30;80.50;;;;;;5027001;28;20049;-83
2021/09/18 07:46:37;;;;;;;27.92;23.50;;;13.40;80.80;;;;;;5026600;28;20469;-82
2021/09/18 07:49:05;;;;;;;14.95;11.77;;;13.50;80.90;;;;;;5029583;28;20045;-82
2021/09/18 07:51:31;;;;;;;28.25;22.52;;;13.60;81.00;;;;;;5025878;28;20050;-82
2021/09/18 07:53:58;;;;;;;30.13;21.48;;;13.70;80.80;;;;;;5025937;28;20103;-82
2021/09/18 07:56:25;;;;;;;25.60;21.73;;;13.80;80.80;;;;;;5025435;28;20103;-82
2021/09/18 07:58:54;;;;;;;14.15;12.27;;;13.90;80.90;;;;;;5025936;28;20046;-82
2021/09/18 08:01:23;;;;;;;20.35;18.17;;;14.10;81.10;;;;;;5028232;28;20103;-82
2021/09/18 08:03:51;;;;;;;12.57;10.27;;;14.20;81.00;;;;;;5028477;28;20045;-82
2021/09/18 08:06:18;;;;;;;22.65;18.42;;;14.40;81.10;;;;;;5029280;28;20042;-82
2021/09/18 08:08:45;;;;;;;22.05;17.40;;;14.40;81.10;;;;;;5030966;28;20049;-82
2021/09/18 08:11:12;;;;;;;20.10;17.05;;;14.60;81.20;;;;;;5028963;28;20049;-82
2021/09/18 08:13:39;;;;;;;26.05;18.02;;;14.70;81.20;;;;;;5029883;28;20056;-82
2021/09/18 08:16:06;;;;;;;23.50;15.77;;;14.80;81.20;;;;;;5032916;28;20166;-82
2021/09/18 08:18:33;;;;;;;25.00;17.48;;;14.90;81.20;;;;;;5028936;28;20085;-82
2021/09/18 08:21:00;;;;;;;22.73;17.20;;;15.10;81.20;;;;;;5028740;28;20140;-82
2021/09/18 08:23:27;;;;;;;15.52;13.90;;;15.20;81.10;;;;;;5029057;28;20128;-82
2021/09/18 08:25:54;;;;;;;22.15;16.20;;;15.30;80.90;;;;;;5028786;28;20042;-83
2021/09/18 08:28:21;;;;;;;21.42;15.63;;;15.40;80.70;;;;;;5031349;28;20045;-83
2021/09/18 08:30:48;;;;;;;16.38;13.50;;;15.50;80.50;;;;;;5030777;28;20053;-83
2021/09/18 08:33:15;;;;;;;14.35;12.52;;;15.70;80.30;;;;;;5028774;28;20052;-82
2021/09/18 08:35:42;;;;;;;20.98;14.85;;;15.80;80.20;;;;;;5028656;28;20053;-83
2021/09/18 08:38:09;;;;;;;17.95;14.55;;;15.90;80.10;;;;;;5028655;28;20049;-83
2021/09/18 08:40:38;;;;;;;15.23;13.25;;;16.10;80.20;;;;;;5029712;28;20604;-83
2021/09/18 08:43:06;;;;;;;15.45;11.90;;;16.20;80.20;;;;;;5032285;28;20103;-83
2021/09/18 08:45:34;;;;;;;12.02;10.57;;;16.40;79.80;;;;;;5028551;28;20112;-83
2021/09/18 08:48:04;;;;;;;15.02;10.95;;;16.50;79.50;;;;;;5030350;28;20049;-83
2021/09/18 08:50:32;;;;;;;15.63;12.98;;;16.70;79.10;;;;;;5028473;28;20566;-83
2021/09/18 08:53:00;;;;;;;14.15;11.18;;;16.90;78.70;;;;;;5028481;28;20042;-82
2021/09/18 08:55:27;;;;;;;15.02;11.20;;;16.90;78.20;;;;;;5012907;28;20049;-83
2021/09/18 08:57:54;;;;;;;13.63;10.95;;;17.10;77.80;;;;;;5030262;28;20107;-83
2021/09/18 09:00:33;;;;;;;15.63;11.88;;;17.30;77.60;;;;;;5010703;28;20053;-83
2021/09/18 09:03:05;;;;;;;13.10;10.45;;;17.50;77.40;;;;;;5028052;28;20132;-83
2021/09/18 09:05:36;;;;;;;15.35;11.02;;;17.60;77.10;;;;;;5028178;28;20081;-83
2021/09/18 09:08:09;;;;;;;14.38;9.65;;;17.80;76.80;;;;;;5027913;28;20053;-84
2021/09/18 09:10:38;;;;;;;17.58;9.30;;;17.90;76.30;;;;;;5029360;28;20068;-83
2021/09/18 09:13:07;;;;;;;10.18;8.32;;;18.10;75.60;;;;;;5014092;28;20056;-83
2021/09/18 09:15:35;;;;;;;11.20;9.65;;;18.30;74.80;;;;;;5027236;28;20580;-83
2021/09/18 09:18:20;;;;;;;10.68;9.32;;;18.40;74.20;;;;;;5027841;28;20099;-83
2021/09/18 09:21:18;;;;;;;11.15;8.40;;;18.60;74.00;;;;;;5027723;28;20662;-83
2021/09/18 09:24:03;;;;;;;20.13;10.00;;;18.80;73.60;;;;;;5027359;28;20099;-83
2021/09/18 09:26:31;;;;;;;11.02;8.32;;;18.90;73.00;;;;;;5029469;28;20068;-84
2021/09/18 09:28:58;;;;;;;10.55;8.18;;;19.10;72.30;;;;;;5027961;28;20096;-84
2021/09/18 09:31:28;;;;;;;10.45;8.20;;;19.30;72.00;;;;;;5030253;28;20522;-83
2021/09/18 09:34:06;;;;;;;12.05;8.25;;;19.40;71.50;;;;;;5029937;28;20052;-84
2021/09/18 09:36:44;;;;;;;10.88;8.50;;;19.60;71.00;;;;;;5027459;28;20804;-84
2021/09/18 09:39:23;;;;;;;10.70;6.75;;;19.70;70.40;;;;;;5027412;28;20057;-84
2021/09/18 09:41:57;;;;;;;9.32;6.90;;;19.90;69.90;;;;;;5027552;28;20111;-86
2021/09/18 09:44:32;;;;;;;11.68;7.22;;;20.00;69.30;;;;;;5027355;28;20092;-85
2021/09/18 09:47:07;;;;;;;7.13;5.10;;;20.20;68.70;;;;;;5027427;28;20046;-85
2021/09/18 09:49:54;;;;;;;7.55;5.25;;;20.30;67.80;;;;;;5028995;28;20320;-85
2021/09/18 09:52:31;;;;;;;12.63;5.38;;;20.40;67.20;;;;;;5026653;28;20076;-86
2021/09/18 09:55:12;;;;;;;8.02;5.60;;;20.60;66.90;;;;;;5029976;28;20492;-84
2021/09/18 09:57:44;;;;;;;6.57;4.95;;;20.80;66.40;;;;;;5027564;28;20049;-85
2021/09/18 10:00:13;;;;;;;7.43;4.70;;;20.90;65.90;;;;;;5027124;28;20107;-83
2021/09/18 10:02:42;;;;;;;6.22;4.28;;;21.00;65.60;;;;;;5027031;28;20088;-84
2021/09/18 10:05:15;;;;;;;7.00;4.80;;;21.10;65.00;;;;;;5028924;28;20121;-85
2021/09/18 10:07:43;;;;;;;7.20;4.45;;;21.30;64.20;;;;;;5011498;28;20084;-85
2021/09/18 10:10:12;;;;;;;6.65;4.70;;;21.40;63.40;;;;;;5027108;28;20050;-85
2021/09/18 10:12:40;;;;;;;7.65;4.80;;;21.40;63.40;;;;;;5027361;28;20457;-85
2021/09/18 10:15:09;;;;;;;6.38;4.60;;;21.50;63.80;;;;;;5026729;28;20449;-84
2021/09/18 10:17:43;;;;;;;7.80;4.50;;;21.60;62.80;;;;;;5026648;28;20045;-85
2021/09/18 10:23:13;;;;;;;9.38;5.20;;;21.70;62.70;;;;;;5026356;28;20050;-84
2021/09/18 10:23:17;;;;;;;7.70;4.65;;;21.80;61.90;;;;;;5013527;28;20042;-85
2021/09/18 10:25:49;;;;;;;6.78;4.70;;;21.90;62.00;;;;;;5011398;28;20563;-85
2021/09/18 10:28:22;;;;;;;7.80;4.43;;;22.00;61.90;;;;;;5025828;28;20054;-85
2021/09/18 10:30:52;;;;;;;;;;;22.20;61.30;;;;;;5030679;28;20049;-84
2021/09/18 10:33:40;;;;;;;6.60;3.80;;;22.30;61.00;;;;;;5026526;28;19974;-85
2021/09/18 10:36:16;;;;;;;6.38;4.10;;;22.40;60.00;;;;;;5026245;28;20100;-84
2021/09/18 10:38:51;;;;;;;5.45;3.83;;;22.40;59.10;;;;;;5026507;28;20057;-86
2021/09/18 10:41:24;;;;;;;5.22;3.42;;;22.40;58.90;;;;;;5026553;28;20049;-85
2021/09/18 10:43:51;;;;;;;4.95;3.20;;;22.60;59.10;;;;;;5028442;28;20051;-85
2021/09/18 10:46:37;;;;;;;8.00;2.72;;;22.60;59.00;;;;;;5029637;28;20091;-84
2021/09/18 10:49:04;;;;;;;5.43;2.10;;;22.80;59.10;;;;;;5029217;28;20119;-85
2021/09/18 10:51:39;;;;;;;3.60;1.98;;;22.80;58.20;;;;;;5007576;28;20053;-84
2021/09/18 10:54:09;;;;;;;3.10;1.75;;;22.90;57.50;;;;;;5019278;28;20050;-85
2021/09/18 10:57:01;;;;;;;6.07;2.05;;;23.00;57.20;;;;;;5017656;28;20045;-85
2021/09/18 10:59:46;;;;;;;3.88;1.98;;;23.00;56.80;;;;;;5026354;28;20050;-84
2021/09/18 11:02:34;;;;;;;4.03;1.75;;;23.10;56.50;;;;;;5026333;28;20568;-84
2021/09/18 11:05:09;;;;;;;4.95;2.17;;;23.20;56.50;;;;;;5012852;28;20050;-84
2021/09/18 11:07:49;;;;;;;4.18;1.90;;;23.30;56.20;;;;;;5027561;28;20104;-86
2021/09/18 11:10:35;;;;;;;3.90;2.28;;;23.30;56.10;;;;;;5026245;28;20053;-86
2021/09/18 11:13:11;;;;;;;3.78;1.92;;;23.40;55.50;;;;;;5029251;28;20049;-86
2021/09/18 11:15:39;;;;;;;7.10;1.90;;;23.50;54.80;;;;;;5026120;28;20049;-84
2021/09/18 11:18:15;;;;;;;4.97;2.00;;;23.60;54.80;;;;;;5025963;28;20053;-84
2021/09/18 11:20:43;;;;;;;6.45;2.10;;;23.60;54.90;;;;;;5027653;28;20057;-83
2021/09/18 11:23:11;;;;;;;3.50;1.80;;;23.70;55.40;;;;;;5028082;28;20045;-85
2021/09/18 11:25:43;;;;;;;3.50;1.70;;;23.70;54.00;;;;;;5027197;28;20042;-84
2021/09/18 11:28:15;;;;;;;4.68;1.73;;;23.80;54.60;;;;;;5026028;28;20115;-84
2021/09/18 11:30:46;;;;;;;5.35;1.80;;;23.80;54.70;;;;;;5028616;28;20046;-84
2021/09/18 11:33:18;;;;;;;3.40;1.98;;;23.90;55.00;;;;;;5025646;28;20620;-85
2021/09/18 11:35:59;;;;;;;4.97;1.88;;;24.10;54.90;;;;;;5021829;28;20575;-85
2021/09/18 11:38:30;;;;;;;3.50;1.60;;;24.10;54.40;;;;;;5018117;28;20046;-85
2021/09/18 11:41:08;;;;;;;3.13;1.65;;;24.30;54.30;;;;;;5030724;28;20442;-84
2021/09/18 11:43:37;;;;;;;2.95;1.83;;;24.30;53.90;;;;;;5031400;28;20510;-84
2021/09/18 11:46:04;;;;;;;5.55;2.20;;;24.40;53.90;;;;;;5034064;28;20092;-84
2021/09/18 11:48:32;;;;;;;3.78;1.80;;;24.40;53.40;;;;;;5029913;28;20068;-84
2021/09/18 11:51:01;;;;;;;3.38;1.80;;;24.50;53.40;;;;;;5030595;28;20049;-84
2021/09/18 11:53:28;;;;;;;4.03;1.67;;;24.70;53.60;;;;;;5029559;28;20399;-84
2021/09/18 11:55:56;;;;;;;4.00;1.80;;;24.70;53.40;;;;;;5031055;28;20104;-84
2021/09/18 11:58:28;;;;;;;3.50;1.73;;;24.80;53.10;;;;;;5033297;28;20049;-85
2021/09/18 12:01:03;;;;;;;3.10;1.63;;;24.90;52.70;;;;;;5032468;28;20041;-84
2021/09/18 12:03:34;;;;;;;4.40;2.17;;;25.00;52.20;;;;;;5032082;28;20080;-85
2021/09/18 12:06:07;;;;;;;3.97;1.90;;;25.00;51.90;;;;;;5030649;28;20091;-85
2021/09/18 12:08:36;;;;;;;4.18;2.30;;;25.10;52.10;;;;;;5030208;28;20468;-84
2021/09/18 12:11:10;;;;;;;5.35;1.88;;;25.20;52.30;;;;;;5030723;28;20046;-84
2021/09/18 12:13:43;;;;;;;4.22;1.95;;;25.30;51.70;;;;;;5031657;28;25120;-84
2021/09/18 12:16:11;;;;;;;5.78;2.00;;;25.30;51.60;;;;;;5033392;28;20053;-83
2021/09/18 12:18:49;;;;;;;3.47;1.80;;;25.40;51.20;;;;;;5029234;28;20053;-86
2021/09/18 12:21:20;;;;;;;4.60;1.98;;;25.40;50.80;;;;;;5028919;28;20050;-84
2021/09/18 12:24:09;;;;;;;4.32;2.28;;;25.40;50.80;;;;;;5028907;28;20045;-84
2021/09/18 12:26:40;;;;;;;3.80;1.80;;;25.40;50.70;;;;;;5029000;28;20049;-84
2021/09/18 12:29:11;;;;;;;5.35;1.90;;;25.40;50.90;;;;;;5028966;28;20446;-84
2021/09/18 12:31:41;;;;;;;3.58;1.70;;;25.40;50.80;;;;;;5027636;28;20101;-83
2021/09/18 12:34:10;;;;;;;3.25;1.80;;;25.40;50.40;;;;;;5032731;28;20438;-84
2021/09/18 12:36:37;;;;;;;3.35;2.10;;;25.40;49.60;;;;;;5028655;28;20108;-84
2021/09/18 12:39:06;;;;;;;4.38;1.77;;;25.40;50.20;;;;;;5030192;28;20049;-84
2021/09/18 12:41:36;;;;;;;3.72;2.03;;;25.40;51.00;;;;;;5030520;28;20113;-84
2021/09/18 12:44:05;;;;;;;5.15;2.08;;;25.40;51.30;;;;;;5028734;28;20494;-84
2021/09/18 12:46:46;;;;;;;3.78;1.70;;;25.50;51.00;;;;;;5030260;28;20049;-83
2021/09/18 12:49:14;;;;;;;3.92;1.67;;;25.50;50.80;;;;;;5028939;28;20056;-84
2021/09/18 12:51:45;;;;;;;3.75;1.70;;;25.60;50.90;;;;;;5026894;28;20049;-84
2021/09/18 12:54:18;;;;;;;5.80;1.80;;;25.60;50.90;;;;;;5010861;28;20050;-85